Time;durP1;ratioP1;P1;durP2;ratioP2;P2;SDS_P1;SDS_P2;PMS_P1;PMS_P2;Temp;Humidity;BMP_temperature;BMP_pressure;BME280_temperature;BME280_humidity;BME280_pressure;Samples;Min_cycle;Max_cycle;Signal;HPM_P1;HPM_P2
2023/06/21 00:01:05;;;;;;;16.48;9.80;;;;;;;18.64;100.00;101699.66;5033721;28;20091;-73
2023/06/21 00:06:53;;;;;;;20.85;9.75;;;;;;;18.18;100.00;101706.25;5033656;28;20099;-75
2023/06/21 00:09:18;;;;;;;26.35;11.00;;;;;;;17.45;100.00;101608.19;5032082;28;20431;-74
2023/06/21 00:11:44;;;;;;;27.58;11.02;;;;;;;17.99;100.00;101715.44;5033573;28;20032;-75
2023/06/21 00:14:09;;;;;;;23.48;10.98;;;;;;;17.53;100.00;101652.56;5032834;28;20388;-74
2023/06/21 00:16:35;;;;;;;23.92;10.57;;;;;;;17.50;100.00;101653.47;5033294;28;20099;-75
2023/06/21 00:19:00;;;;;;;18.83;10.82;;;;;;;18.03;100.00;101696.44;5033158;28;20447;-76
2023/06/21 00:21:25;;;;;;;28.52;12.10;;;;;;;17.73;100.00;101639.91;5033256;28;20025;-75
2023/06/21 00:27:13;;;;;;;20.05;11.23;;;;;;;17.75;100.00;101623.53;5033721;28;20112;-76
2023/06/21 00:29:38;;;;;;;19.70;10.85;;;;;;;17.69;100.00;101586.91;5032719;28;20471;-76
2023/06/21 00:32:04;;;;;;;25.60;12.27;;;;;;;17.79;100.00;101634.56;5015262;28;20475;-76
2023/06/21 00:41:19;;;;;;;20.38;12.05;;;;;;;17.49;100.00;101595.19;5033360;28;20056;-75
2023/06/21 00:43:45;;;;;;;18.13;11.55;;;;;;;18.30;100.00;101673.28;5015104;28;20041;-75
2023/06/21 00:46:10;;;;;;;18.58;11.50;;;;;;;18.14;100.00;101655.75;5033198;28;20111;-75
2023/06/21 00:48:35;;;;;;;21.20;12.02;;;;;;;17.57;100.00;101577.81;5032925;28;20026;-75
2023/06/21 00:54:34;;;;;;;15.70;11.68;;;;;;;18.28;100.00;101618.41;5033521;28;20041;-75
2023/06/21 00:57:04;;;;;;;20.77;13.02;;;;;;;17.86;100.00;101620.66;5014836;28;20029;-75
2023/06/21 00:59:30;;;;;;;22.20;13.75;;;;;;;17.67;100.00;101611.81;5033052;28;20037;-75
2023/06/21 01:05:17;;;;;;;16.83;12.80;;;;;;;17.76;100.00;101661.28;5033114;28;20035;-75
2023/06/21 01:11:23;;;;;;;18.65;12.90;;;;;;;17.39;100.00;101668.31;5032986;28;20028;-74
2023/06/21 01:14:10;;;;;;;20.08;12.55;;;;;;;17.80;100.00;101664.59;5031057;28;20028;-74
2023/06/21 01:19:58;;;;;;;17.40;10.90;;;;;;;16.86;100.00;101532.81;5032380;28;20443;-73
2023/06/21 01:22:37;;;;;;;19.73;11.57;;;;;;;17.74;100.00;101657.91;5030348;28;20021;-73
2023/06/21 01:25:18;;;;;;;17.60;11.10;;;;;;;17.67;100.00;101646.09;5032382;28;20030;-75
2023/06/21 01:28:02;;;;;;;15.98;11.00;;;;;;;17.22;100.00;101608.84;5032400;28;20511;-74
2023/06/21 01:30:31;;;;;;;13.75;10.73;;;;;;;17.22;100.00;101585.72;5031953;28;20029;-74
2023/06/21 01:32:56;;;;;;;16.98;10.45;;;;;;;17.30;100.00;101582.03;5032302;28;20115;-74
2023/06/21 01:35:22;;;;;;;17.85;11.02;;;;;;;17.16;100.00;101602.16;5032206;28;20171;-74
2023/06/21 01:37:52;;;;;;;20.40;11.45;;;;;;;17.63;100.00;101617.97;5030581;28;20415;-75
2023/06/21 01:40:19;;;;;;;16.23;11.32;;;;;;;17.07;100.00;101547.63;5031918;28;20040;-75
2023/06/21 01:42:45;;;;;;;15.52;11.10;;;;;;;17.54;100.00;101619.06;5031113;28;20025;-74
2023/06/21 01:45:11;;;;;;;17.75;12.23;;;;;;;17.56;100.00;101626.72;5031627;28;20396;-74
2023/06/21 01:47:38;;;;;;;17.15;11.95;;;;;;;17.47;100.00;101619.28;5031303;28;20140;-74
2023/06/21 01:50:08;;;;;;;16.95;12.32;;;;;;;17.74;100.00;101646.75;5030472;28;20029;-75
2023/06/21 01:52:34;;;;;;;16.60;12.68;;;;;;;17.56;100.00;101614.72;5032138;28;20025;-74
2023/06/21 01:58:21;;;;;;;19.80;12.50;;;;;;;17.83;100.00;101644.75;5032285;28;20059;-74
2023/06/21 02:00:46;;;;;;;19.48;13.13;;;;;;;17.87;100.00;101648.91;5030322;28;20029;-74
2023/06/21 02:03:15;;;;;;;16.88;12.95;;;;;;;17.88;100.00;101675.47;5031959;28;20059;-74
2023/06/21 02:05:42;;;;;;;16.13;11.75;;;;;;;17.45;100.00;101595.31;5030757;28;20037;-74
2023/06/21 02:11:29;;;;;;;13.27;11.97;;;;;;;17.83;100.00;101652.47;5032142;28;20040;-74
2023/06/21 02:13:56;;;;;;;17.55;12.23;;;;;;;17.69;100.00;101658.94;5031353;28;20022;-72
2023/06/21 02:16:25;;;;;;;16.13;12.05;;;;;;;17.74;100.00;101644.19;5031065;28;20029;-73
2023/06/21 02:18:51;;;;;;;15.50;12.02;;;;;;;17.46;100.00;101589.28;5031783;28;20052;-73
2023/06/21 02:21:17;;;;;;;14.93;11.70;;;;;;;17.66;100.00;101600.69;5015901;28;20476;-74
2023/06/21 02:23:43;;;;;;;14.00;11.98;;;;;;;17.84;100.00;101673.91;5034390;28;20116;-74
2023/06/21 02:26:08;;;;;;;15.75;12.27;;;;;;;17.71;100.00;101632.25;5017497;28;20035;-74
2023/06/21 02:31:55;;;;;;;17.52;12.20;;;;;;;18.05;100.00;101665.50;5035877;28;20495;-74
2023/06/21 02:34:21;;;;;;;15.95;12.07;;;;;;;17.32;100.00;101616.25;5034756;28;20029;-74
2023/06/21 02:36:53;;;;;;;15.27;11.73;;;;;;;17.43;100.00;101615.91;5033921;28;20022;-74
2023/06/21 02:42:40;;;;;;;19.30;11.25;;;;;;;17.53;100.00;101601.94;5035612;28;20083;-74
2023/06/21 02:45:07;;;;;;;21.70;11.27;;;;;;;17.84;100.00;101663.59;5032994;28;20029;-75
2023/06/21 02:47:33;;;;;;;21.30;11.85;;;;;;;17.27;100.00;101553.00;5033952;28;20025;-74
2023/06/21 02:53:21;;;;;;;15.88;12.02;;;;;;;18.14;100.00;101672.94;5035447;28;20395;-74
2023/06/21 02:55:46;;;;;;;19.05;12.57;;;;;;;18.02;100.00;101688.78;5016855;28;20017;-75
2023/06/21 02:58:12;;;;;;;16.02;11.90;;;;;;;17.94;100.00;101665.84;5034378;28;20022;-74
2023/06/21 03:00:37;;;;;;;17.23;12.20;;;;;;;18.21;100.00;101687.28;5017391;28;20056;-74
2023/06/21 03:06:24;;;;;;;18.00;12.35;;;;;;;18.16;100.00;101684.84;5035290;28;20031;-74
2023/06/21 03:08:51;;;;;;;17.60;12.93;;;;;;;17.52;100.00;101599.41;5016503;28;20112;-73
2023/06/21 03:11:17;;;;;;;17.20;11.98;;;;;;;18.27;100.00;101689.69;5034808;28;20025;-74
2023/06/21 03:13:43;;;;;;;18.20;12.27;;;;;;;17.82;100.00;101637.91;5034615;28;20031;-74
2023/06/21 03:16:08;;;;;;;22.42;13.70;;;;;;;17.26;100.00;101577.03;5033780;28;20037;-74
2023/06/21 03:18:34;;;;;;;25.70;14.98;;;;;;;17.87;100.00;101653.19;5016619;28;20471;-74
2023/06/21 03:21:02;;;;;;;23.48;14.63;;;;;;;17.57;100.00;101643.88;5033562;28;20029;-73
2023/06/21 03:26:49;;;;;;;21.53;14.97;;;;;;;17.80;100.00;101687.75;5034127;28;20082;-74
2023/06/21 03:29:14;;;;;;;24.17;13.85;;;;;;;17.66;100.00;101644.41;5033647;28;20120;-74
2023/06/21 03:31:41;;;;;;;20.25;13.77;;;;;;;18.20;100.00;101734.56;5015924;28;20104;-76
2023/06/21 03:34:07;;;;;;;20.75;14.75;;;;;;;17.78;100.00;101692.09;5017028;28;20442;-73
2023/06/21 03:43:47;;;;;;;22.60;14.50;;;;;;;17.80;100.00;101641.41;5034103;28;20112;-73
2023/06/21 03:46:13;;;;;;;23.65;15.55;;;;;;;18.03;100.00;101727.34;5031915;28;20053;-72
2023/06/21 03:48:38;;;;;;;16.75;11.77;;;;;;;19.23;100.00;101759.50;5032972;28;20112;-71
2023/06/21 03:54:25;;;;;;;20.52;15.88;;;;;;;17.96;100.00;101731.00;5034212;28;20090;-74
2023/06/21 03:56:51;;;;;;;22.33;15.68;;;;;;;17.68;100.00;101658.09;5033478;28;20112;-74
2023/06/21 03:59:16;;;;;;;22.48;16.23;;;;;;;17.90;100.00;101659.13;5015693;28;20116;-74
2023/06/21 04:01:42;;;;;;;24.30;16.17;;;;;;;17.79;100.00;101734.94;5033518;28;20033;-73
2023/06/21 04:07:30;;;;;;;27.80;16.10;;;;;;;17.45;100.00;101675.06;5033551;28;20056;-73
2023/06/21 04:09:55;;;;;;;24.13;15.93;;;;;;;17.62;100.00;101678.00;5031849;28;20399;-75
2023/06/21 04:12:20;;;;;;;22.33;15.63;;;;;;;18.21;100.00;101728.50;5033410;28;20026;-74
2023/06/21 04:18:08;;;;;;;24.15;16.75;;;;;;;17.76;100.00;101675.84;5033500;28;20102;-73
2023/06/21 04:20:33;;;;;;;21.13;16.20;;;;;;;18.84;100.00;101748.78;5035374;28;20434;-75
2023/06/21 04:22:58;;;;;;;23.75;16.60;;;;;;;18.14;100.00;101704.66;5034350;28;20125;-75
2023/06/21 04:25:24;;;;;;;28.15;17.35;;;;;;;18.05;100.00;101755.59;5033531;28;20451;-76
2023/06/21 04:31:10;;;;;;;27.23;17.07;;;;;;;18.59;100.00;101742.75;5033254;28;20063;-73
2023/06/21 04:33:36;;;;;;;22.40;16.67;;;;;;;18.75;100.00;101759.41;5032481;28;20030;-73
2023/06/21 04:36:01;;;;;;;24.30;16.52;;;;;;;18.21;100.00;101707.91;5014549;28;20471;-74
2023/06/21 04:38:27;;;;;;;26.50;17.20;;;;;;;18.85;100.00;101712.66;5030875;28;20026;-73
2023/06/21 04:44:17;;;;;;;35.20;18.10;;;;;;;18.79;100.00;101735.22;5032090;28;20143;-74
2023/06/21 04:46:44;;;;;;;27.73;17.27;;;;;;;19.35;100.00;101777.97;5031086;28;20033;-72
2023/06/21 04:49:09;;;;;;;29.13;17.13;;;;;;;18.78;100.00;101663.94;5031917;28;20078;-73
2023/06/21 04:51:34;;;;;;;30.40;17.73;;;;;;;18.92;100.00;101751.94;5013996;28;20060;-73
2023/06/21 04:54:00;;;;;;;27.30;16.88;;;;;;;19.72;100.00;101782.66;5030662;28;20444;-73
2023/06/21 04:56:27;;;;;;;25.15;17.48;;;;;;;19.46;100.00;101762.13;5032104;28;20048;-73
2023/06/21 04:58:52;;;;;;;21.13;18.02;;;;;;;19.66;100.00;101739.88;5031190;28;20489;-73
2023/06/21 05:01:18;;;;;;;24.45;17.05;;;;;;;20.00;100.00;101777.31;5031864;28;20119;-72
2023/06/21 05:07:05;;;;;;;20.65;16.40;;;;;;;20.09;100.00;101759.72;5032473;28;20036;-72
2023/06/21 05:12:52;;;;;;;20.60;17.25;;;;;;;20.21;100.00;101748.09;5032848;28;20036;-72
2023/06/21 05:15:17;;;;;;;19.60;17.33;;;;;;;19.93;100.00;101722.47;5013308;28;20025;-72
2023/06/21 05:17:43;;;;;;;20.52;17.60;;;;;;;20.16;100.00;101766.34;5031730;28;20424;-72
2023/06/21 05:20:09;;;;;;;22.13;16.85;;;;;;;20.43;100.00;101739.44;5030487;28;20032;-72
2023/06/21 05:25:56;;;;;;;21.98;17.38;;;;;;;21.28;100.00;101779.84;5032228;28;20449;-71
2023/06/21 05:28:21;;;;;;;20.60;18.50;;;;;;;20.70;100.00;101704.69;5031430;28;20021;-72
2023/06/21 05:30:47;;;;;;;18.55;16.60;;;;;;;20.60;100.00;101742.16;5031315;28;20042;-72
2023/06/21 05:33:14;;;;;;;23.00;17.90;;;;;;;21.51;100.00;101795.22;5031877;28;20041;-71
2023/06/21 05:35:40;;;;;;;21.45;18.30;;;;;;;21.32;100.00;101733.06;5031873;28;20026;-71
2023/06/21 05:38:06;;;;;;;19.95;17.02;;;;;;;22.14;100.00;101833.81;5013980;28;20037;-72
2023/06/21 05:43:53;;;;;;;20.65;18.00;;;;;;;22.43;100.00;101797.00;5032010;28;20039;-74
2023/06/21 05:46:18;;;;;;;21.52;17.52;;;;;;;22.66;100.00;101819.22;5013722;28;20120;-72
2023/06/21 05:48:44;;;;;;;29.35;18.92;;;;;;;22.15;100.00;101822.53;5031575;28;20044;-72
2023/06/21 05:51:09;;;;;;;20.67;18.23;;;;;;;22.49;100.00;101805.38;5031658;28;20025;-72
2023/06/21 05:53:35;;;;;;;21.33;16.98;;;;;;;23.07;100.00;101814.63;5013458;28;20053;-72
2023/06/21 05:56:00;;;;;;;21.45;17.58;;;;;;;22.46;100.00;101808.13;5033969;28;20017;-72
2023/06/21 05:58:26;;;;;;;17.80;15.90;;;;;;;21.99;100.00;101711.88;5035721;28;20036;-72
2023/06/21 06:00:51;;;;;;;17.77;15.68;;;;;;;23.02;100.00;101817.44;5017574;28;20033;-72
2023/06/21 06:03:17;;;;;;;19.52;17.27;;;;;;;22.58;100.00;101798.00;5035261;28;20523;-72
2023/06/21 06:05:44;;;;;;;19.38;16.80;;;;;;;22.56;100.00;101767.88;5034641;28;20052;-72
2023/06/21 06:08:09;;;;;;;22.20;16.13;;;;;;;22.23;100.00;101713.28;5033566;28;20488;-72
2023/06/21 06:10:35;;;;;;;21.05;16.05;;;;;;;23.25;100.00;101783.34;5016639;28;20036;-71
2023/06/21 06:13:00;;;;;;;17.48;15.68;;;;;;;22.89;100.00;101707.41;5035231;28;20025;-71
2023/06/21 06:15:26;;;;;;;22.35;16.73;;;;;;;23.67;100.00;101784.69;5035071;28;20021;-72
2023/06/21 06:17:51;;;;;;;17.50;15.70;;;;;;;24.06;100.00;101770.38;5033621;28;20032;-72
2023/06/21 06:23:38;;;;;;;19.77;14.48;;;;;;;24.19;100.00;101722.88;5035226;28;20092;-72
2023/06/21 06:26:03;;;;;;;18.15;15.82;;;;;;;23.56;100.00;101735.88;5033042;28;20025;-72
2023/06/21 06:28:29;;;;;;;18.15;15.05;;;;;;;24.35;100.00;101727.13;5033329;28;20033;-72
2023/06/21 06:30:54;;;;;;;22.80;15.50;;;;;;;24.28;100.00;101718.03;5034294;28;20094;-72
2023/06/21 06:33:20;;;;;;;19.23;15.38;;;;;;;24.96;100.00;101726.22;5016657;28;20029;-72
2023/06/21 06:35:45;;;;;;;15.80;14.00;;;;;;;24.43;100.00;101641.69;5033012;28;20022;-72
2023/06/21 06:38:10;;;;;;;16.08;14.40;;;;;;;24.73;100.00;101636.47;5033612;28;20468;-72
2023/06/21 06:40:36;;;;;;;16.50;13.70;;;;;;;25.03;100.00;101637.22;5034119;28;20049;-71
2023/06/21 06:43:02;;;;;;;14.70;13.10;;;;;;;25.64;100.00;101666.34;5019208;28;20048;-71
2023/06/21 06:45:35;;;;;;;15.38;12.90;;;;;;;25.63;100.00;101650.81;5034790;28;20484;-71
2023/06/21 06:48:00;;;;;;;14.85;12.13;;;;;;;25.83;100.00;101632.09;5016583;28;20117;-71
2023/06/21 06:50:26;;;;;;;14.85;12.38;;;;;;;25.91;100.00;101613.38;5035552;28;20029;-72
2023/06/21 06:52:52;;;;;;;16.55;12.65;;;;;;;26.04;100.00;101585.53;5018207;28;20026;-72
2023/06/21 06:55:18;;;;;;;15.63;12.80;;;;;;;25.62;100.00;101590.03;5041941;28;20018;-72
2023/06/21 06:57:43;;;;;;;15.35;13.10;;;;;;;25.73;100.00;101576.31;5035260;28;20040;-72
2023/06/21 07:00:13;;;;;;;18.17;12.32;;;;;;;26.45;100.00;101553.16;5014658;28;20468;-73
2023/06/21 07:02:38;;;;;;;14.30;12.27;;;;;;;25.87;100.00;101536.31;5032826;28;20502;-72
2023/06/21 07:05:04;;;;;;;17.98;12.10;;;;;;;26.28;100.00;101558.69;5032741;28;20029;-72
2023/06/21 07:07:30;;;;;;;13.30;11.95;;;;;;;26.76;100.00;101548.44;5032072;28;20025;-72
2023/06/21 07:09:55;;;;;;;13.45;12.05;;;;;;;26.45;100.00;101554.91;5031729;28;20048;-72
2023/06/21 07:12:20;;;;;;;19.15;11.90;;;;;;;26.10;100.00;101462.59;5032754;28;20387;-71
2023/06/21 07:14:46;;;;;;;11.95;10.70;;;;;;;26.21;100.00;101505.25;5030859;28;20028;-71
2023/06/21 07:17:11;;;;;;;12.23;10.70;;;;;;;27.54;100.00;101565.41;5014085;28;20029;-73
2023/06/21 07:19:38;;;;;;;12.50;10.73;;;;;;;26.78;100.00;101499.56;5031869;28;20033;-72
2023/06/21 07:22:04;;;;;;;11.50;10.27;;;;;;;27.54;100.00;101552.34;5016047;28;20539;-71
2023/06/21 07:24:29;;;;;;;11.13;9.82;;;;;;;26.73;100.00;101433.78;5032107;28;20125;-72
2023/06/21 07:26:55;;;;;;;11.02;9.63;;;;;;;27.20;100.00;101528.66;5032014;28;20399;-71
2023/06/21 07:29:20;;;;;;;11.63;9.75;;;;;;;27.39;100.00;101462.84;5035846;28;20460;-72
2023/06/21 07:31:46;;;;;;;11.32;9.30;;;;;;;27.72;100.00;101503.94;5031828;28;20376;-73
2023/06/21 07:34:12;;;;;;;10.05;9.02;;;;;;;27.15;100.00;101441.13;5031711;28;20131;-72
2023/06/21 07:36:39;;;;;;;9.38;8.45;;;;;;;27.70;100.00;101427.38;5030870;28;20040;-71
2023/06/21 07:39:04;;;;;;;9.73;8.75;;;;;;;27.24;100.00;101490.91;5030671;28;20053;-70
2023/06/21 07:41:29;;;;;;;9.23;8.30;;;;;;;28.44;100.00;101464.31;5031154;28;20029;-72
2023/06/21 07:43:55;;;;;;;10.93;8.35;;;;;;;28.32;100.00;101415.53;5047334;28;20395;-71
2023/06/21 07:46:20;;;;;;;12.25;8.25;;;;;;;28.81;100.00;101433.41;5051524;28;20032;-72
2023/06/21 07:48:46;;;;;;;9.07;8.23;;;;;;;27.78;100.00;101427.63;5051713;28;20017;-73
2023/06/21 07:51:11;;;;;;;8.77;7.82;;;;;;;26.89;100.00;101367.28;5051730;28;20032;-72
2023/06/21 07:53:36;;;;;;;10.90;7.78;;;;;;;29.12;100.00;101357.41;5051343;28;20491;-71
2023/06/21 07:56:02;;;;;;;10.77;8.70;;;;;;;27.81;100.00;101307.94;5051163;28;20029;-71
2023/06/21 07:58:28;;;;;;;11.95;8.10;;;;;;;29.13;100.00;101292.75;5049711;28;20046;-71
2023/06/21 08:00:53;;;;;;;9.00;8.10;;;;;;;28.56;100.00;101266.16;5033093;28;20035;-71
2023/06/21 08:03:19;;;;;;;9.13;8.25;;;;;;;28.92;100.00;101234.31;5050411;28;20111;-71
2023/06/21 08:05:44;;;;;;;12.35;8.38;;;;;;;29.32;100.00;101244.84;5051484;28;20067;-71
2023/06/21 08:08:10;;;;;;;10.38;7.93;;;;;;;29.44;100.00;101199.22;5049579;28;20024;-71
2023/06/21 08:10:35;;;;;;;9.63;7.90;;;;;;;30.02;100.00;101174.78;5049999;28;20119;-71
2023/06/21 08:13:01;;;;;;;12.82;7.40;;;;;;;29.20;100.00;101093.91;5050019;28;20021;-71
2023/06/21 08:15:34;;;;;;;10.32;7.82;;;;;;;29.12;100.00;101076.19;5051071;28;20113;-71
2023/06/21 08:17:59;;;;;;;7.55;6.85;;;;;;;29.82;100.00;101090.00;5048411;28;20060;-71
2023/06/21 08:20:26;;;;;;;8.27;6.93;;;;;;;29.88;100.00;100962.66;5050862;28;20468;-71
2023/06/21 08:22:51;;;;;;;9.18;7.13;;;;;;;28.56;100.00;100884.78;5033737;28;20518;-71
2023/06/21 08:26:04;;;;;;;7.65;6.88;;;;;;;30.16;100.00;100761.47;5049961;28;20029;-70
2023/06/21 08:28:30;;;;;;;7.80;6.03;;;;;;;29.22;100.00;100515.47;5051345;28;20020;-73
2023/06/21 08:30:56;;;;;;;9.95;6.40;;;;;;;29.81;100.00;100082.94;5033650;28;20033;-72
2023/06/21 08:33:23;;;;;;;9.02;6.25;;;;;;;30.45;100.00;99194.88;5049400;28;20021;-72
2023/06/21 08:35:49;;;;;;;7.57;6.07;;;;;;;29.64;100.00;98715.56;5051492;28;20040;-71
2023/06/21 08:38:14;;;;;;;6.93;6.15;;;;;;;29.83;100.00;96547.53;5033235;28;20035;-71
2023/06/21 08:40:42;;;;;;;6.55;6.00;;;;;;;30.03;100.00;96568.63;5032752;28;20540;-72
2023/06/21 08:43:08;;;;;;;6.57;5.97;;;;;;;30.36;100.00;98656.31;5049949;28;20410;-72
2023/06/21 08:45:33;;;;;;;8.05;6.00;;;;;;;30.43;100.00;98683.34;5051860;28;20021;-74
2023/06/21 08:48:03;;;;;;;7.47;6.32;;;;;;;30.43;100.00;98783.06;5049460;28;20020;-72
2023/06/21 08:50:29;;;;;;;6.28;5.78;;;;;;;30.68;100.00;98817.44;5055408;28;20033;-72
2023/06/21 08:52:58;;;;;;;6.57;5.95;;;;;;;29.99;100.00;98658.66;5059563;28;20028;-72
2023/06/21 08:55:27;;;;;;;7.65;5.85;;;;;;;30.53;100.00;98795.78;5063776;28;20458;-71
2023/06/21 08:58:03;;;;;;;6.82;5.78;;;;;;;30.73;100.00;98611.06;5051472;28;20036;-71
2023/06/21 09:00:34;;;;;;;7.88;6.35;;;;;;;30.54;100.00;98653.88;5050421;28;20129;-71
2023/06/21 09:03:33;;;;;;;5.93;5.43;;;;;;;29.90;100.00;98744.53;5050745;28;20016;-71
2023/06/21 09:06:18;;;;;;;7.35;5.88;;;;;;;30.44;100.00;98734.84;5051509;28;20021;-71
2023/06/21 09:08:46;;;;;;;6.65;5.75;;;;;;;30.26;100.00;98794.91;5048946;28;20066;-71
2023/06/21 09:11:13;;;;;;;7.35;5.70;;;;;;;31.19;100.00;98813.25;5032422;28;20032;-71
2023/06/21 09:13:40;;;;;;;7.68;5.88;;;;;;;31.35;100.00;98599.97;5051067;28;20475;-71
2023/06/21 09:16:06;;;;;;;7.38;6.05;;;;;;;31.03;100.00;98832.06;5050523;28;20036;-72
2023/06/21 09:18:36;;;;;;;6.30;5.70;;;;;;;30.39;100.00;99007.50;5049477;28;20029;-72
2023/06/21 09:21:03;;;;;;;6.32;5.60;;;;;;;30.65;100.00;99018.16;5051226;28;20017;-72
2023/06/21 09:23:29;;;;;;;6.80;6.20;;;;;;;31.39;100.00;99091.88;5032885;28;20128;-73
2023/06/21 09:26:17;;;;;;;7.80;7.00;;;;;;;31.68;100.00;99236.16;5049811;28;20067;-73
2023/06/21 09:28:44;;;;;;;7.95;5.60;;;;;;;31.49;100.00;99356.03;5032987;28;20032;-75
2023/06/21 09:31:10;;;;;;;7.50;5.72;;;;;;;29.92;100.00;99497.75;5053949;28;20043;-74
2023/06/21 09:33:37;;;;;;;6.30;5.70;;;;;;;29.52;100.00;99600.25;5053857;28;20032;-74
2023/06/21 09:36:04;;;;;;;6.20;5.70;;;;;;;29.31;100.00;99639.34;5055197;28;20029;-72
2023/06/21 09:38:32;;;;;;;6.30;5.70;;;;;;;29.37;100.00;99718.09;5035904;28;20368;-73
2023/06/21 09:41:07;;;;;;;6.50;5.90;;;;;;;30.68;100.00;99726.69;5033443;28;20377;-73
2023/06/21 09:43:32;;;;;;;6.53;5.90;;;;;;;29.52;100.00;99754.88;5034787;28;20395;-72
2023/06/21 09:46:07;;;;;;;6.43;5.85;;;;;;;30.95;100.00;99777.03;5040984;28;20028;-75
2023/06/21 09:48:37;;;;;;;7.20;6.05;;;;;;;30.63;100.00;99906.75;5051992;28;20483;-75
2023/06/21 09:54:55;;;;;;;6.22;5.72;;;;;;;31.00;100.00;100114.44;5054997;28;20143;-80
2023/06/21 09:57:29;;;;;;;6.85;5.95;;;;;;;30.69;100.00;100090.72;5055362;28;20060;-81
2023/06/21 09:59:55;;;;;;;6.68;6.00;;;;;;;31.04;100.00;100076.31;5056051;28;20033;-79
2023/06/21 10:02:22;;;;;;;5.80;5.30;;;;;;;31.58;100.00;100135.88;5054180;28;20029;-80
2023/06/21 10:04:54;;;;;;;9.02;5.70;;;;;;;31.79;100.00;100137.06;5054572;28;20407;-81
2023/06/21 10:07:23;;;;;;;6.93;6.00;;;;;;;31.31;100.00;100127.63;5055519;28;20060;-81
2023/06/21 10:09:49;;;;;;;8.60;5.55;;;;;;;30.31;100.00;100128.22;5054958;28;20047;-80
2023/06/21 10:12:15;;;;;;;7.30;6.05;;;;;;;31.41;100.00;100149.31;5055225;28;20390;-79
2023/06/21 10:14:41;;;;;;;6.25;5.75;;;;;;;32.19;100.00;100253.44;5036589;28;20497;-80
2023/06/21 10:17:08;;;;;;;7.13;5.63;;;;;;;31.92;100.00;100311.84;5037474;28;20056;-77
2023/06/21 10:19:34;;;;;;;6.10;5.40;;;;;;;31.60;100.00;100227.75;5037458;28;20119;-77
2023/06/21 10:22:07;;;;;;;6.88;5.90;;;;;;;31.62;100.00;100331.00;5054993;28;20024;-76
2023/06/21 10:24:51;;;;;;;6.35;5.75;;;;;;;32.08;100.00;100309.13;5036737;28;20029;-82
2023/06/21 10:27:19;;;;;;;5.97;5.47;;;;;;;30.88;100.00;100227.97;5054835;28;20037;-80
2023/06/21 10:29:48;;;;;;;7.60;5.65;;;;;;;31.29;100.00;100246.09;5037050;28;20056;-78
2023/06/21 10:32:15;;;;;;;6.82;6.10;;;;;;;30.87;100.00;100282.31;5054302;28;20115;-76
2023/06/21 10:34:55;;;;;;;7.60;5.65;;;;;;;30.99;100.00;100282.78;5037073;28;20107;-78
2023/06/21 10:37:36;;;;;;;6.37;5.87;;;;;;;31.06;100.00;100296.91;5056022;28;20021;-79
2023/06/21 10:40:09;;;;;;;6.85;5.90;;;;;;;30.23;100.00;100238.41;5055186;28;20037;-76
2023/06/21 10:42:36;;;;;;;7.30;5.85;;;;;;;30.92;100.00;100222.19;5035989;28;20032;-77
2023/06/21 10:45:06;;;;;;;6.20;5.70;;;;;;;30.67;100.00;100286.22;5055070;28;20514;-81
2023/06/21 10:47:33;;;;;;;7.57;5.90;;;;;;;31.15;100.00;100337.97;5054671;28;20490;-80
2023/06/21 10:50:00;;;;;;;6.60;5.90;;;;;;;30.47;100.00;100311.97;5053319;28;20041;-77
2023/06/21 10:52:26;;;;;;;6.53;5.93;;;;;;;31.45;100.00;100332.03;5055527;28;20033;-79
2023/06/21 10:55:02;;;;;;;6.55;5.95;;;;;;;31.67;100.00;100338.38;5037316;28;20036;-78
2023/06/21 10:57:30;;;;;;;7.80;5.85;;;;;;;32.11;100.00;100379.84;5053093;28;20032;-78
2023/06/21 11:00:00;;;;;;;6.30;5.70;;;;;;;31.96;100.00;100330.72;5054515;28;20033;-78
2023/06/21 11:02:26;;;;;;;6.57;5.93;;;;;;;31.63;100.00;100374.72;5053050;28;20033;-77
2023/06/21 11:05:25;;;;;;;8.45;6.07;;;;;;;30.21;100.00;100400.47;5037211;28;20021;-78
2023/06/21 11:08:01;;;;;;;6.30;5.70;;;;;;;31.03;100.00;100400.56;5021147;28;20037;-77
2023/06/21 11:10:49;;;;;;;6.65;6.05;;;;;;;31.65;100.00;100404.31;5036456;28;20028;-77
2023/06/21 11:13:34;;;;;;;6.40;5.80;;;;;;;31.44;100.00;100414.53;5052867;28;20160;-80
2023/06/21 11:16:13;;;;;;;6.72;6.03;;;;;;;32.12;100.00;100399.94;5054345;28;20091;-80
2023/06/21 11:18:39;;;;;;;6.70;5.93;;;;;;;30.54;100.00;100380.44;5054318;28;20027;-80
2023/06/21 11:21:06;;;;;;;6.20;5.70;;;;;;;31.82;100.00;100405.91;5054125;28;20099;-76
2023/06/21 11:23:47;;;;;;;7.05;6.25;;;;;;;32.72;100.00;100388.78;5036064;28;20017;-77
2023/06/21 11:26:14;;;;;;;7.78;6.38;;;;;;;32.56;100.00;100402.88;5054306;28;20060;-76
2023/06/21 11:28:47;;;;;;;6.72;6.13;;;;;;;31.81;100.00;100414.81;5036184;28;20351;-76
2023/06/21 11:31:18;;;;;;;7.93;6.10;;;;;;;31.11;100.00;100421.59;5053765;28;20128;-77
2023/06/21 11:33:48;;;;;;;9.63;6.07;;;;;;;31.21;100.00;100422.25;5036603;28;20537;-76
2023/06/21 11:36:16;;;;;;;6.55;6.00;;;;;;;30.89;100.00;100413.50;5054072;28;20024;-78
2023/06/21 11:39:12;;;;;;;7.03;6.13;;;;;;;30.55;100.00;100340.03;5035808;28;20029;-77
2023/06/21 11:41:44;;;;;;;8.13;6.20;;;;;;;31.92;100.00;100403.13;5028099;28;20502;-77
2023/06/21 11:44:14;;;;;;;6.88;5.90;;;;;;;31.91;100.00;100335.66;5052052;28;20033;-78
2023/06/21 11:46:40;;;;;;;8.73;5.60;;;;;;;31.22;100.00;100375.75;5053968;28;20021;-76
2023/06/21 11:49:06;;;;;;;6.47;5.88;;;;;;;31.38;100.00;100344.19;5036103;28;20056;-77
2023/06/21 11:51:32;;;;;;;6.72;6.10;;;;;;;32.55;100.00;100405.66;5035130;28;20056;-77
2023/06/21 11:54:35;;;;;;;6.38;5.43;;;;;;;31.54;100.00;100408.13;5053876;28;20021;-79
2023/06/21 11:57:07;;;;;;;6.22;5.63;;;;;;;31.90;100.00;100392.72;5053855;28;20491;-78
2023/06/21 11:59:34;;;;;;;6.40;5.80;;;;;;;32.22;100.00;100326.81;5036045;28;20024;-78
2023/06/21 12:02:20;;;;;;;7.40;5.95;;;;;;;31.98;100.00;100353.25;5053255;28;20091;-77
2023/06/21 12:04:47;;;;;;;6.63;6.05;;;;;;;31.53;100.00;100324.13;5035548;28;20471;-78
2023/06/21 12:07:12;;;;;;;6.50;6.00;;;;;;;32.31;100.00;100375.81;5035153;28;20029;-78
2023/06/21 12:09:39;;;;;;;6.53;5.85;;;;;;;31.57;100.00;100401.72;5053149;28;20099;-80
2023/06/21 12:12:09;;;;;;;7.72;5.72;;;;;;;31.87;100.00;100387.00;5053305;28;20023;-77
2023/06/21 12:14:35;;;;;;;7.17;6.13;;;;;;;32.27;100.00;100398.19;5053386;28;20033;-78
2023/06/21 12:17:00;;;;;;;6.32;5.70;;;;;;;31.33;100.00;100326.28;5034817;28;20071;-77
2023/06/21 12:19:27;;;;;;;6.40;5.80;;;;;;;31.39;100.00;100356.38;5034796;28;20505;-79
2023/06/21 12:22:00;;;;;;;6.60;6.00;;;;;;;31.16;100.00;100402.69;5034690;28;20550;-79
2023/06/21 12:24:27;;;;;;;6.30;5.80;;;;;;;31.00;100.00;100314.16;5053055;28;20459;-80
2023/06/21 12:26:55;;;;;;;6.32;5.82;;;;;;;30.85;100.00;100351.75;5035189;28;20486;-79
2023/06/21 12:29:20;;;;;;;6.53;5.47;;;;;;;31.06;100.00;100388.91;5052856;28;20028;-80
2023/06/21 12:31:46;;;;;;;9.90;7.30;;;;;;;30.53;100.00;100344.63;5052417;28;20036;-79
2023/06/21 12:34:16;;;;;;;6.43;5.90;;;;;;;30.50;100.00;100340.56;5051644;28;20017;-78
2023/06/21 12:36:45;;;;;;;7.65;5.90;;;;;;;31.01;100.00;100394.63;5052040;28;20028;-77
2023/06/21 12:39:12;;;;;;;6.10;5.60;;;;;;;30.81;100.00;100330.22;5036749;28;20108;-75
2023/06/21 12:41:40;;;;;;;6.78;6.18;;;;;;;31.41;100.00;100389.41;5052954;28;20052;-77
2023/06/21 12:44:16;;;;;;;6.80;6.20;;;;;;;31.93;100.00;100352.94;5054307;28;20506;-77
2023/06/21 12:46:42;;;;;;;6.45;5.85;;;;;;;31.15;100.00;100353.72;5053284;28;20025;-76
2023/06/21 12:49:07;;;;;;;6.70;6.07;;;;;;;30.63;100.00;100319.88;5034677;28;20036;-82